WLW weather

Willows Glenn County Airport
Willows, California, United States

Public forecast

Using degrees Fahrenheit for public forecast. Weather courtesy of forecast.io.

Closest aviation weather report (METAR) to Willows Glenn County Airport

Closest report is Chico Municipal Airport, 23.6 nm (43.7 km) NE. Retrieved 2019/10/17 06:35 UTC (24 minutes ago):

KCIC 170635Z AUTO 14007KT 10SM OVC080 18/05 A2983 RMK AO1

Closest aviation forecast (TAF) to Willows Glenn County Airport

Closest forecast is Red Bluff Municipal Airport, 38.1 nm (70.6 km) N. Retrieved 2019/10/17 06:22 UTC (37 minutes ago):

TAF KRBL 170520Z 1706/1806 28005KT P6SM OVC090 TEMPO 1706/1707 P6SM -SHRA BKN070 FM170700 34004KT P6SM VCSH BKN050 OVC100 FM171200 VRB03KT P6SM BKN100 FM171800 35006KT P6SM SCT100